Time;durP1;ratioP1;P1;durP2;ratioP2;P2;SDS_P1;SDS_P2;PMS_P1;PMS_P2;Temp;Humidity;BMP_temperature;BMP_pressure;BME280_temperature;BME280_humidity;BME280_pressure;Samples;Min_cycle;Max_cycle;Signal;HPM_P1;HPM_P2
2022/12/20 00:00:11;;;;;;;;;;;17.50;57.40;;;;;;5061688;28;813;-67
2022/12/20 00:02:37;;;;;;;;;;;17.50;57.50;;;;;;5061300;28;1436;-68
2022/12/20 00:05:02;;;;;;;;;;;17.50;57.50;;;;;;5061203;28;957;-68
2022/12/20 00:07:28;;;;;;;;;;;17.50;57.50;;;;;;5061664;28;915;-68
2022/12/20 00:09:53;;;;;;;;;;;17.50;57.50;;;;;;5062926;28;1961;-68
2022/12/20 00:12:18;;;;;;;;;;;17.50;57.50;;;;;;5062000;28;1263;-68
2022/12/20 00:14:44;;;;;;;;;;;17.40;57.50;;;;;;5065891;28;888;-68
2022/12/20 00:17:09;;;;;;;;;;;17.40;57.50;;;;;;5061677;28;930;-68
2022/12/20 00:19:35;;;;;;;;;;;17.40;57.50;;;;;;5060970;28;848;-68
2022/12/20 00:22:00;;;;;;;;;;;17.40;57.50;;;;;;5058736;28;1222;-67
2022/12/20 00:24:26;;;;;;;;;;;17.40;57.50;;;;;;5061948;28;810;-68
2022/12/20 00:26:51;;;;;;;;;;;17.50;57.60;;;;;;5065838;28;884;-67
2022/12/20 00:29:17;;;;;;;;;;;17.40;57.50;;;;;;5060675;28;1003;-68
2022/12/20 00:31:42;;;;;;;;;;;17.40;58.10;;;;;;5063520;28;1898;-67
2022/12/20 00:34:08;;;;;;;;;;;17.50;57.60;;;;;;5062511;28;796;-67
2022/12/20 00:36:33;;;;;;;;;;;17.40;57.60;;;;;;5060882;28;853;-68
2022/12/20 00:38:59;;;;;;;;;;;17.40;57.60;;;;;;5059429;28;932;-68
2022/12/20 00:41:28;;;;;;;;;;;17.40;57.60;;;;;;5064598;28;1257;-68
2022/12/20 00:43:54;;;;;;;;;;;17.40;57.60;;;;;;5060638;28;899;-67
2022/12/20 00:46:19;;;;;;;;;;;17.40;57.60;;;;;;5063458;28;891;-67
2022/12/20 00:48:45;;;;;;;;;;;17.40;57.60;;;;;;5062014;28;864;-67
2022/12/20 00:51:15;;;;;;;;;;;17.40;57.60;;;;;;5067734;28;1890;-67
2022/12/20 00:53:40;;;;;;;;;;;17.40;57.60;;;;;;5060254;28;864;-67
2022/12/20 00:56:06;;;;;;;;;;;17.40;57.60;;;;;;5060633;28;923;-68
2022/12/20 00:58:32;;;;;;;;;;;17.40;57.60;;;;;;5062290;28;914;-68
2022/12/20 01:00:57;;;;;;;;;;;17.40;57.60;;;;;;5064893;28;1365;-68
2022/12/20 01:03:23;;;;;;;;;;;17.40;57.60;;;;;;5063645;28;1382;-67
2022/12/20 01:05:50;;;;;;;;;;;17.40;57.70;;;;;;5059411;28;863;-67
2022/12/20 01:08:15;;;;;;;;;;;17.40;57.70;;;;;;5062828;28;851;-67
2022/12/20 01:10:41;;;;;;;;;;;17.40;57.70;;;;;;5062603;28;1910;-67
2022/12/20 01:13:06;;;;;;;;;;;17.40;57.70;;;;;;5060773;28;824;-67
2022/12/20 01:15:32;;;;;;;;;;;17.40;57.70;;;;;;5062345;28;1092;-67
2022/12/20 01:17:57;;;;;;;;;;;17.40;57.70;;;;;;5040868;28;1254;-67
2022/12/20 01:20:23;;;;;;;;;;;17.40;57.70;;;;;;5058472;28;1373;-67
2022/12/20 01:22:49;;;;;;;;;;;17.40;57.70;;;;;;5057772;28;1209;-67
2022/12/20 01:25:15;;;;;;;;;;;17.40;57.70;;;;;;5057525;28;917;-67
2022/12/20 01:27:40;;;;;;;;;;;17.40;57.70;;;;;;5058802;28;843;-67
2022/12/20 01:30:06;;;;;;;;;;;17.40;57.70;;;;;;5061979;28;1962;-67
2022/12/20 01:32:32;;;;;;;;;;;17.40;57.70;;;;;;5060722;28;1218;-67
2022/12/20 01:34:57;;;;;;;;;;;17.40;57.70;;;;;;5058893;28;919;-67
2022/12/20 01:37:22;;;;;;;;;;;17.40;57.70;;;;;;5060091;28;971;-67
2022/12/20 01:39:48;;;;;;;;;;;17.30;57.70;;;;;;5061015;28;1018;-67
2022/12/20 01:42:13;;;;;;;;;;;17.40;57.80;;;;;;5060894;28;1300;-67
2022/12/20 01:44:42;;;;;;;;;;;17.40;57.80;;;;;;5063173;28;875;-67
2022/12/20 01:47:07;;;;;;;;;;;17.40;57.80;;;;;;5061855;28;844;-68
2022/12/20 01:49:38;;;;;;;;;;;17.30;58.30;;;;;;5059394;28;821;-67
2022/12/20 01:52:08;;;;;;;;;;;17.30;57.80;;;;;;5061643;28;2236;-67
2022/12/20 01:54:35;;;;;;;;;;;17.30;57.80;;;;;;5060309;28;891;-67
2022/12/20 01:57:05;;;;;;;;;;;17.40;57.90;;;;;;5039166;28;1199;-67
2022/12/20 01:59:30;;;;;;;;;;;17.40;57.90;;;;;;5057958;28;879;-68
2022/12/20 02:01:56;;;;;;;;;;;17.30;57.80;;;;;;5059092;28;1279;-68
2022/12/20 02:04:22;;;;;;;;;;;17.30;57.80;;;;;;5059626;28;1397;-68
2022/12/20 02:06:47;;;;;;;;;;;17.30;57.80;;;;;;5060766;28;950;-68
2022/12/20 02:09:13;;;;;;;;;;;17.30;57.80;;;;;;5063203;28;1049;-68
2022/12/20 02:11:51;;;;;;;;;;;17.30;57.80;;;;;;5060635;28;1902;-68
2022/12/20 02:14:22;;;;;;;;;;;17.30;57.80;;;;;;5059530;28;948;-68
2022/12/20 02:16:49;;;;;;;;;;;17.30;57.80;;;;;;5060059;28;833;-68
2022/12/20 02:19:15;;;;;;;;;;;17.30;57.80;;;;;;5061438;28;899;-68
2022/12/20 02:22:12;;;;;;;;;;;17.30;57.90;;;;;;5063221;28;1276;-67
2022/12/20 02:24:52;;;;;;;;;;;17.30;57.90;;;;;;5028536;28;1292;-68
2022/12/20 02:27:21;;;;;;;;;;;17.30;57.90;;;;;;5066633;28;1387;-68
2022/12/20 02:30:19;;;;;;;;;;;17.30;57.90;;;;;;5061915;28;1898;-67
2022/12/20 02:32:58;;;;;;;;;;;17.30;57.90;;;;;;5025270;28;1318;-68
2022/12/20 02:35:25;;;;;;;;;;;17.30;57.90;;;;;;5062992;28;986;-67
2022/12/20 02:37:55;;;;;;;;;;;17.30;57.90;;;;;;5060981;28;1094;-67
2022/12/20 02:40:22;;;;;;;;;;;17.30;57.90;;;;;;5064083;28;1396;-68
2022/12/20 02:42:49;;;;;;;;;;;17.30;57.90;;;;;;5069629;28;818;-68
2022/12/20 02:45:14;;;;;;;;;;;17.30;57.90;;;;;;5069327;28;926;-68
2022/12/20 02:47:51;;;;;;;;;;;17.30;57.90;;;;;;5064061;28;827;-68
2022/12/20 02:50:19;;;;;;;;;;;17.30;57.90;;;;;;5063971;28;1922;-68
2022/12/20 02:52:45;;;;;;;;;;;17.30;57.90;;;;;;5070554;28;1070;-68
2022/12/20 02:55:10;;;;;;;;;;;17.30;57.90;;;;;;5064998;28;794;-67
2022/12/20 02:57:36;;;;;;;;;;;17.30;58.00;;;;;;5062670;28;847;-68
2022/12/20 03:00:01;;;;;;;;;;;17.30;57.90;;;;;;5067242;28;852;-68
2022/12/20 03:02:27;;;;;;;;;;;17.30;57.90;;;;;;5063492;28;1344;-68
2022/12/20 03:04:52;;;;;;;;;;;17.30;58.00;;;;;;5070004;28;1440;-67
2022/12/20 03:07:18;;;;;;;;;;;17.30;57.90;;;;;;5060648;28;1347;-67
2022/12/20 03:09:43;;;;;;;;;;;17.30;58.00;;;;;;5061436;28;897;-67
2022/12/20 03:12:10;;;;;;;;;;;17.30;57.90;;;;;;5069462;28;1901;-67
2022/12/20 03:14:36;;;;;;;;;;;17.30;57.90;;;;;;5060221;28;1629;-67
2022/12/20 03:17:02;;;;;;;;;;;17.30;58.00;;;;;;5060072;28;911;-67
2022/12/20 03:19:27;;;;;;;;;;;17.30;58.00;;;;;;5064741;28;829;-67
2022/12/20 03:21:53;;;;;;;;;;;17.30;58.00;;;;;;5061860;28;1326;-67
2022/12/20 03:24:18;;;;;;;;;;;17.30;57.90;;;;;;5060844;28;846;-67
2022/12/20 03:26:44;;;;;;;;;;;17.30;57.90;;;;;;5065150;28;1398;-67
2022/12/20 03:29:09;;;;;;;;;;;17.30;58.00;;;;;;5062770;28;800;-67
2022/12/20 03:31:35;;;;;;;;;;;17.30;57.90;;;;;;5063833;28;1955;-67
2022/12/20 03:34:01;;;;;;;;;;;17.30;58.00;;;;;;5061074;28;831;-67
2022/12/20 03:36:26;;;;;;;;;;;17.30;58.00;;;;;;5058403;28;870;-67
2022/12/20 03:38:52;;;;;;;;;;;17.30;58.00;;;;;;5063035;28;875;-67
2022/12/20 03:41:18;;;;;;;;;;;17.30;58.00;;;;;;5064376;28;1383;-67
2022/12/20 03:43:43;;;;;;;;;;;17.30;58.00;;;;;;5059796;28;1377;-67
2022/12/20 03:46:08;;;;;;;;;;;17.30;58.00;;;;;;5060774;28;1625;-66
2022/12/20 03:48:34;;;;;;;;;;;17.30;58.00;;;;;;5060251;28;1457;-67
2022/12/20 03:50:59;;;;;;;;;;;17.30;58.00;;;;;;5061033;28;1898;-68
2022/12/20 03:53:25;;;;;;;;;;;17.30;58.00;;;;;;5060979;28;1419;-66
2022/12/20 03:55:50;;;;;;;;;;;17.30;58.60;;;;;;5060218;28;1401;-67
2022/12/20 03:58:16;;;;;;;;;;;17.30;58.00;;;;;;5062641;28;1323;-68
2022/12/20 04:00:41;;;;;;;;;;;17.30;58.00;;;;;;5059844;28;1383;-68
2022/12/20 04:03:07;;;;;;;;;;;17.30;58.00;;;;;;5062108;28;1421;-67
2022/12/20 04:05:32;;;;;;;;;;;17.30;58.10;;;;;;5063620;28;1546;-67
2022/12/20 04:07:57;;;;;;;;;;;17.30;58.00;;;;;;5059571;28;1331;-68
2022/12/20 04:10:23;;;;;;;;;;;17.30;58.00;;;;;;5059134;28;1897;-68
2022/12/20 04:12:48;;;;;;;;;;;17.30;58.00;;;;;;5059939;28;836;-67
2022/12/20 04:15:14;;;;;;;;;;;17.30;58.00;;;;;;5062667;28;922;-66
2022/12/20 04:17:39;;;;;;;;;;;17.30;58.10;;;;;;5061619;28;1007;-66
2022/12/20 04:20:17;;;;;;;;;;;17.30;58.10;;;;;;5060807;28;907;-66
2022/12/20 04:22:44;;;;;;;;;;;17.30;58.10;;;;;;5064452;28;1309;-66
2022/12/20 04:25:09;;;;;;;;;;;17.30;58.10;;;;;;5068166;28;1590;-66
2022/12/20 04:27:35;;;;;;;;;;;17.30;58.10;;;;;;5060002;28;905;-66
2022/12/20 04:30:00;;;;;;;;;;;17.30;58.10;;;;;;5061818;28;1882;-67
2022/12/20 04:32:26;;;;;;;;;;;17.30;58.10;;;;;;5064212;28;1266;-66
2022/12/20 04:34:51;;;;;;;;;;;17.20;58.00;;;;;;5058583;28;838;-66
2022/12/20 04:37:16;;;;;;;;;;;17.20;58.10;;;;;;5061181;28;879;-71
2022/12/20 04:39:42;;;;;;;;;;;17.20;58.10;;;;;;5062231;28;880;-66
2022/12/20 04:42:07;;;;;;;;;;;17.20;58.10;;;;;;5065498;28;1383;-66
2022/12/20 04:44:33;;;;;;;;;;;17.20;58.10;;;;;;5060975;28;1400;-66
2022/12/20 04:46:58;;;;;;;;;;;17.20;58.10;;;;;;5060922;28;785;-67
2022/12/20 04:49:24;;;;;;;;;;;17.30;58.10;;;;;;5058235;28;1057;-66
2022/12/20 04:51:49;;;;;;;;;;;17.20;58.10;;;;;;5060195;28;1969;-67
2022/12/20 04:54:15;;;;;;;;;;;17.20;58.10;;;;;;5061432;28;962;-66
2022/12/20 04:56:40;;;;;;;;;;;17.20;58.10;;;;;;5056277;28;1198;-66
2022/12/20 04:59:06;;;;;;;;;;;17.20;58.10;;;;;;5061181;28;911;-67
2022/12/20 05:01:31;;;;;;;;;;;17.20;58.10;;;;;;5061246;28;1301;-68
2022/12/20 05:03:56;;;;;;;;;;;17.20;58.10;;;;;;5062711;28;921;-67
2022/12/20 05:06:22;;;;;;;;;;;17.20;58.10;;;;;;5058750;28;1184;-67
2022/12/20 05:08:47;;;;;;;;;;;17.20;58.10;;;;;;5063437;28;905;-68
2022/12/20 05:11:13;;;;;;;;;;;17.20;58.10;;;;;;5062149;28;1959;-67
2022/12/20 05:13:38;;;;;;;;;;;17.20;58.10;;;;;;5062285;28;860;-67
2022/12/20 05:16:04;;;;;;;;;;;17.30;58.10;;;;;;5063733;28;847;-67
2022/12/20 05:18:29;;;;;;;;;;;17.30;58.10;;;;;;5060800;28;1441;-67
2022/12/20 05:26:23;;;;;;;;;;;17.30;57.90;;;;;;5062262;28;777;-66
2022/12/20 05:28:49;;;;;;;;;;;17.30;57.80;;;;;;5058727;28;808;-66
2022/12/20 05:31:14;;;;;;;;;;;17.40;57.80;;;;;;5061387;28;1961;-66
2022/12/20 05:33:40;;;;;;;;;;;17.40;57.80;;;;;;5063528;28;876;-66
2022/12/20 05:36:05;;;;;;;;;;;17.40;57.70;;;;;;5058650;28;875;-67
2022/12/20 05:38:31;;;;;;;;;;;17.40;57.60;;;;;;5057789;28;863;-67
2022/12/20 05:40:56;;;;;;;;;;;17.40;57.60;;;;;;5062117;28;1318;-67
2022/12/20 05:43:22;;;;;;;;;;;17.40;57.50;;;;;;5062454;28;792;-67
2022/12/20 05:45:48;;;;;;;;;;;17.40;57.60;;;;;;5061193;28;793;-67
2022/12/20 05:48:14;;;;;;;;;;;17.50;57.50;;;;;;5059535;28;993;-67
2022/12/20 05:50:39;;;;;;;;;;;17.50;57.50;;;;;;5057555;28;4127;-67
2022/12/20 05:53:05;;;;;;;;;;;17.50;57.50;;;;;;5059252;28;808;-67
2022/12/20 05:55:30;;;;;;;;;;;17.50;57.50;;;;;;5061738;28;922;-67
2022/12/20 05:57:56;;;;;;;;;;;17.50;57.40;;;;;;5060634;28;920;-67
2022/12/20 06:00:21;;;;;;;;;;;17.50;57.90;;;;;;5058732;28;1377;-67
2022/12/20 06:02:47;;;;;;;;;;;17.50;57.30;;;;;;5060183;28;840;-67
2022/12/20 06:05:12;;;;;;;;;;;17.60;57.30;;;;;;5062121;28;1369;-67
2022/12/20 06:07:37;;;;;;;;;;;17.60;57.30;;;;;;5066280;28;1073;-67
2022/12/20 06:10:03;;;;;;;;;;;17.60;57.30;;;;;;5057759;28;1907;-66
2022/12/20 06:12:29;;;;;;;;;;;17.60;57.30;;;;;;5061095;28;1311;-66
2022/12/20 06:14:54;;;;;;;;;;;17.60;57.30;;;;;;5059000;28;875;-66
2022/12/20 06:17:20;;;;;;;;;;;17.60;57.20;;;;;;5059801;28;1064;-66
2022/12/20 06:19:46;;;;;;;;;;;17.60;57.20;;;;;;5057971;28;855;-66
2022/12/20 06:22:12;;;;;;;;;;;17.60;57.20;;;;;;5060288;28;1236;-66
2022/12/20 06:24:38;;;;;;;;;;;17.60;57.10;;;;;;5060106;28;867;-66
2022/12/20 06:27:05;;;;;;;;;;;17.60;57.10;;;;;;5058466;28;890;-66
2022/12/20 06:29:31;;;;;;;;;;;17.60;57.10;;;;;;5059915;28;899;-66
2022/12/20 06:31:57;;;;;;;;;;;17.60;57.10;;;;;;5059780;28;1960;-66
2022/12/20 06:34:22;;;;;;;;;;;17.60;57.10;;;;;;5060104;28;831;-68
2022/12/20 06:36:47;;;;;;;;;;;17.60;57.00;;;;;;5059835;28;879;-67
2022/12/20 06:39:13;;;;;;;;;;;17.60;57.00;;;;;;5059635;28;874;-67
2022/12/20 06:41:39;;;;;;;;;;;17.70;57.10;;;;;;5057701;28;1340;-68
2022/12/20 06:44:04;;;;;;;;;;;17.70;57.10;;;;;;5058201;28;822;-67
2022/12/20 06:46:29;;;;;;;;;;;17.70;57.10;;;;;;5059800;28;860;-67
2022/12/20 06:48:55;;;;;;;;;;;17.70;57.10;;;;;;5058485;28;1621;-67
2022/12/20 06:51:21;;;;;;;;;;;17.70;57.00;;;;;;5056387;28;1955;-67
2022/12/20 06:53:46;;;;;;;;;;;17.70;57.00;;;;;;5060510;28;796;-68
2022/12/20 06:56:11;;;;;;;;;;;17.60;57.00;;;;;;5062485;28;840;-68
2022/12/20 06:58:37;;;;;;;;;;;17.70;57.10;;;;;;5061075;28;912;-68
2022/12/20 07:01:02;;;;;;;;;;;17.70;57.00;;;;;;5060635;28;1296;-67
2022/12/20 07:03:28;;;;;;;;;;;17.70;57.00;;;;;;5057673;28;1446;-67
2022/12/20 07:05:54;;;;;;;;;;;17.70;57.00;;;;;;5061758;28;972;-67
2022/12/20 07:08:20;;;;;;;;;;;17.70;57.00;;;;;;5066996;28;906;-67
2022/12/20 07:10:45;;;;;;;;;;;17.70;57.00;;;;;;5060195;28;1969;-67
2022/12/20 07:13:11;;;;;;;;;;;17.70;57.00;;;;;;5057733;28;827;-67
2022/12/20 07:15:36;;;;;;;;;;;17.70;57.60;;;;;;5059788;28;856;-68
2022/12/20 07:18:02;;;;;;;;;;;17.70;57.00;;;;;;5061355;28;1014;-67
2022/12/20 07:20:28;;;;;;;;;;;17.60;57.00;;;;;;5054224;28;1849;-69
2022/12/20 07:22:53;;;;;;;;;;;17.70;57.10;;;;;;5063311;28;1240;-69
2022/12/20 07:25:19;;;;;;;;;;;17.70;57.10;;;;;;5062467;28;1100;-69
2022/12/20 07:27:48;;;;;;;;;;;17.60;57.00;;;;;;5059868;28;1698;-69
2022/12/20 07:30:14;;;;;;;;;;;17.60;57.10;;;;;;5067280;28;1898;-68
2022/12/20 07:32:40;;;;;;;;;;;17.60;57.10;;;;;;5063087;28;1292;-68
2022/12/20 07:35:05;;;;;;;;;;;17.60;57.10;;;;;;5066512;28;808;-68
2022/12/20 07:37:31;;;;;;;;;;;17.60;57.10;;;;;;5061370;28;1070;-68
2022/12/20 07:39:56;;;;;;;;;;;17.60;57.10;;;;;;5062631;28;930;-68
2022/12/20 07:42:22;;;;;;;;;;;17.60;57.10;;;;;;5063792;28;1318;-68
2022/12/20 07:44:47;;;;;;;;;;;17.60;57.10;;;;;;5063489;28;932;-68
2022/12/20 07:47:13;;;;;;;;;;;17.60;57.10;;;;;;5062202;28;855;-67
2022/12/20 07:49:38;;;;;;;;;;;17.60;57.20;;;;;;5065014;28;816;-68
2022/12/20 07:52:04;;;;;;;;;;;17.60;57.20;;;;;;5063140;28;1985;-68
2022/12/20 07:54:30;;;;;;;;;;;17.60;57.20;;;;;;5066145;28;924;-68
2022/12/20 07:57:00;;;;;;;;;;;17.60;57.20;;;;;;5062040;28;1030;-67
2022/12/20 07:59:27;;;;;;;;;;;17.60;57.30;;;;;;5069882;28;868;-67
2022/12/20 08:01:53;;;;;;;;;;;17.60;57.30;;;;;;5062000;28;1254;-67
2022/12/20 08:04:20;;;;;;;;;;;17.60;57.30;;;;;;5058950;28;1442;-68
2022/12/20 08:06:45;;;;;;;;;;;17.60;57.30;;;;;;5063135;28;801;-67
2022/12/20 08:09:13;;;;;;;;;;;17.60;57.30;;;;;;5060758;28;963;-67
2022/12/20 08:11:39;;;;;;;;;;;17.60;57.30;;;;;;5062705;28;1898;-68
2022/12/20 08:14:05;;;;;;;;;;;17.50;57.30;;;;;;5062236;28;855;-68
2022/12/20 08:16:30;;;;;;;;;;;17.60;57.40;;;;;;5068749;28;1432;-67
2022/12/20 08:18:56;;;;;;;;;;;17.50;57.30;;;;;;5062459;28;883;-67
2022/12/20 08:21:21;;;;;;;;;;;17.50;57.30;;;;;;5061143;28;1345;-68
2022/12/20 08:23:47;;;;;;;;;;;17.50;57.40;;;;;;5061400;28;1266;-68
2022/12/20 08:26:12;;;;;;;;;;;17.50;57.40;;;;;;5061069;28;871;-68
2022/12/20 08:28:38;;;;;;;;;;;17.50;57.40;;;;;;5062678;28;994;-68
2022/12/20 08:31:04;;;;;;;;;;;17.50;57.40;;;;;;5063036;28;1901;-68
2022/12/20 08:33:29;;;;;;;;;;;17.50;57.40;;;;;;5061329;28;836;-68
2022/12/20 08:35:58;;;;;;;;;;;17.50;57.40;;;;;;5064102;28;928;-68
2022/12/20 08:38:25;;;;;;;;;;;17.50;57.40;;;;;;5068625;28;888;-68
2022/12/20 08:40:50;;;;;;;;;;;17.50;57.40;;;;;;5062024;28;1272;-68
2022/12/20 08:43:16;;;;;;;;;;;17.50;57.30;;;;;;5059491;28;1002;-68
2022/12/20 08:45:41;;;;;;;;;;;17.50;57.30;;;;;;5064843;28;1275;-68
2022/12/20 08:48:06;;;;;;;;;;;17.50;57.30;;;;;;5061022;28;780;-68
2022/12/20 08:50:32;;;;;;;;;;;17.50;57.30;;;;;;5055610;28;1997;-67
2022/12/20 08:52:57;;;;;;;;;;;17.60;57.40;;;;;;5062586;28;883;-66
2022/12/20 08:55:23;;;;;;;;;;;17.60;57.40;;;;;;5059292;28;1049;-67
2022/12/20 08:57:48;;;;;;;;;;;17.60;57.30;;;;;;5063548;28;1010;-67
2022/12/20 09:00:14;;;;;;;;;;;17.60;57.30;;;;;;5061640;28;845;-67
2022/12/20 09:02:40;;;;;;;;;;;17.60;57.30;;;;;;5063268;28;1240;-69
2022/12/20 09:05:06;;;;;;;;;;;17.60;57.30;;;;;;5060827;28;1283;-67
2022/12/20 09:07:31;;;;;;;;;;;17.60;57.30;;;;;;5063873;28;930;-68
2022/12/20 09:09:57;;;;;;;;;;;17.60;57.30;;;;;;5062262;28;926;-67
2022/12/20 09:12:22;;;;;;;;;;;17.60;57.20;;;;;;5060127;28;2402;-68
2022/12/20 09:14:47;;;;;;;;;;;17.60;57.20;;;;;;5059845;28;1216;-68
2022/12/20 09:17:13;;;;;;;;;;;17.60;57.20;;;;;;5064611;28;942;-67
2022/12/20 09:19:38;;;;;;;;;;;17.60;57.20;;;;;;5060148;28;999;-67
2022/12/20 09:22:04;;;;;;;;;;;17.60;57.10;;;;;;5062082;28;1290;-68
2022/12/20 09:24:30;;;;;;;;;;;17.60;57.20;;;;;;5060150;28;923;-67
2022/12/20 09:26:55;;;;;;;;;;;17.60;57.10;;;;;;5060069;28;878;-68
2022/12/20 09:29:21;;;;;;;;;;;17.60;57.10;;;;;;5059812;28;1035;-67
2022/12/20 09:31:48;;;;;;;;;;;17.60;57.10;;;;;;5044886;28;1961;-68
2022/12/20 09:34:13;;;;;;;;;;;17.60;57.10;;;;;;5063947;28;1037;-68
2022/12/20 09:36:38;;;;;;;;;;;17.60;57.10;;;;;;5062613;28;858;-68
2022/12/20 09:39:04;;;;;;;;;;;17.70;57.10;;;;;;5062238;28;1014;-68
2022/12/20 09:41:47;;;;;;;;;;;17.70;57.10;;;;;;5061215;28;1511;-67
2022/12/20 09:44:13;;;;;;;;;;;17.70;57.10;;;;;;5061917;28;1601;-67
2022/12/20 09:46:38;;;;;;;;;;;17.70;57.10;;;;;;5060161;28;1018;-68
2022/12/20 09:49:04;;;;;;;;;;;17.70;57.10;;;;;;5059352;28;883;-68
2022/12/20 09:51:29;;;;;;;;;;;17.70;57.10;;;;;;5058387;28;1898;-68
2022/12/20 09:54:14;;;;;;;;;;;17.70;57.10;;;;;;5061649;28;1212;-68
2022/12/20 09:56:57;;;;;;;;;;;17.70;57.10;;;;;;5058292;28;780;-68
2022/12/20 09:59:22;;;;;;;;;;;17.70;57.10;;;;;;5062665;28;1110;-66
2022/12/20 10:01:48;;;;;;;;;;;17.70;57.10;;;;;;5059811;28;1381;-68
2022/12/20 10:04:18;;;;;;;;;;;17.70;57.10;;;;;;5059314;28;1373;-68
2022/12/20 10:06:52;;;;;;;;;;;17.70;57.10;;;;;;5060308;28;863;-70
2022/12/20 10:09:36;;;;;;;;;;;17.70;57.00;;;;;;5051839;28;4943;-69
2022/12/20 10:12:20;;;;;;;;;;;17.70;57.00;;;;;;5060595;28;1902;-68
2022/12/20 10:14:58;;;;;;;;;;;17.70;57.00;;;;;;5061038;28;2102;-68
2022/12/20 10:17:32;;;;;;;;;;;17.70;57.00;;;;;;5058983;28;1290;-68
2022/12/20 10:20:07;;;;;;;;;;;17.70;57.00;;;;;;5063758;28;1394;-68
2022/12/20 10:22:39;;;;;;;;;;;17.70;57.00;;;;;;5063939;28;1444;-68
2022/12/20 10:25:12;;;;;;;;;;;17.70;57.00;;;;;;5059508;28;1835;-68
2022/12/20 10:27:41;;;;;;;;;;;17.70;57.00;;;;;;5058924;28;1257;-68
2022/12/20 10:30:12;;;;;;;;;;;17.70;57.00;;;;;;5057719;28;1926;-68
2022/12/20 10:32:37;;;;;;;;;;;17.70;57.00;;;;;;5061401;28;1407;-68
2022/12/20 10:35:09;;;;;;;;;;;17.70;57.00;;;;;;5063278;28;904;-68
2022/12/20 10:37:34;;;;;;;;;;;17.70;57.00;;;;;;5058505;28;884;-68
2022/12/20 10:40:00;;;;;;;;;;;17.70;57.60;;;;;;5059143;28;1065;-68
2022/12/20 10:42:38;;;;;;;;;;;17.70;57.00;;;;;;5061970;28;1343;-68
2022/12/20 10:45:30;;;;;;;;;;;17.70;57.00;;;;;;5062582;28;888;-68
2022/12/20 10:47:57;;;;;;;;;;;17.70;57.00;;;;;;5054367;28;1118;-68
2022/12/20 10:50:24;;;;;;;;;;;17.70;57.00;;;;;;5060477;28;1971;-68
2022/12/20 10:53:08;;;;;;;;;;;17.70;57.00;;;;;;5058025;28;820;-68
2022/12/20 10:55:40;;;;;;;;;;;17.70;57.00;;;;;;5062426;28;859;-68
2022/12/20 10:58:13;;;;;;;;;;;17.70;57.00;;;;;;5046455;28;951;-68
2022/12/20 11:00:39;;;;;;;;;;;17.70;57.00;;;;;;5068198;28;1295;-68
2022/12/20 11:03:09;;;;;;;;;;;17.70;57.00;;;;;;5061325;28;824;-68
2022/12/20 11:05:34;;;;;;;;;;;17.70;57.00;;;;;;5064145;28;904;-68
2022/12/20 11:08:26;;;;;;;;;;;17.70;57.00;;;;;;5062200;28;930;-68
2022/12/20 11:11:11;;;;;;;;;;;17.70;56.90;;;;;;5058122;28;1906;-68
2022/12/20 11:13:37;;;;;;;;;;;17.70;56.90;;;;;;5061332;28;883;-68
2022/12/20 11:16:03;;;;;;;;;;;17.70;56.90;;;;;;5059443;28;923;-67
2022/12/20 11:18:36;;;;;;;;;;;17.70;56.90;;;;;;5062571;28;1210;-68
2022/12/20 11:21:04;;;;;;;;;;;17.70;56.90;;;;;;5065590;28;1263;-68
2022/12/20 11:23:51;;;;;;;;;;;17.70;56.90;;;;;;5062902;28;958;-68
2022/12/20 11:26:35;;;;;;;;;;;17.70;56.90;;;;;;5061026;28;872;-68
2022/12/20 11:29:19;;;;;;;;;;;17.70;56.90;;;;;;5063584;28;917;-68
2022/12/20 11:32:07;;;;;;;;;;;17.70;56.90;;;;;;5060192;28;1896;-68
2022/12/20 11:34:38;;;;;;;;;;;17.70;57.50;;;;;;5063664;28;999;-68
2022/12/20 11:37:09;;;;;;;;;;;17.70;56.90;;;;;;5063054;28;839;-68
2022/12/20 11:39:53;;;;;;;;;;;17.70;56.90;;;;;;5061374;28;839;-68
2022/12/20 11:42:37;;;;;;;;;;;17.70;56.90;;;;;;5062377;28;1269;-67
2022/12/20 11:45:17;;;;;;;;;;;17.70;56.90;;;;;;5063214;28;975;-68
2022/12/20 11:48:01;;;;;;;;;;;17.70;56.90;;;;;;5062835;28;1039;-68
2022/12/20 11:50:35;;;;;;;;;;;17.70;56.90;;;;;;5059295;28;1938;-68
2022/12/20 11:53:06;;;;;;;;;;;17.70;56.90;;;;;;5069125;28;1940;-68
2022/12/20 11:55:36;;;;;;;;;;;17.70;56.90;;;;;;5063980;28;2080;-68
2022/12/20 11:58:01;;;;;;;;;;;17.70;56.90;;;;;;5063614;28;1633;-68
2022/12/20 12:00:27;;;;;;;;;;;17.70;56.90;;;;;;5064042;28;1252;-68
2022/12/20 12:02:55;;;;;;;;;;;17.80;57.00;;;;;;5060484;28;869;-68
2022/12/20 12:05:25;;;;;;;;;;;17.70;56.90;;;;;;5059923;28;962;-68
2022/12/20 12:07:55;;;;;;;;;;;17.70;56.90;;;;;;5062164;28;1802;-68
2022/12/20 12:10:24;;;;;;;;;;;17.70;56.90;;;;;;5062075;28;1913;-68
2022/12/20 12:12:51;;;;;;;;;;;17.70;56.90;;;;;;5060804;28;1473;-68
2022/12/20 12:15:21;;;;;;;;;;;17.80;57.00;;;;;;5060647;28;895;-68
2022/12/20 12:17:51;;;;;;;;;;;17.80;57.00;;;;;;5065581;28;844;-68
2022/12/20 12:20:46;;;;;;;;;;;17.80;57.00;;;;;;5061888;28;785;-67
2022/12/20 12:23:20;;;;;;;;;;;17.80;56.90;;;;;;4990274;28;1183;-67
2022/12/20 12:25:45;;;;;;;;;;;17.80;56.90;;;;;;5058563;28;931;-68
2022/12/20 12:28:11;;;;;;;;;;;17.80;56.90;;;;;;5060288;28;895;-68
2022/12/20 12:30:38;;;;;;;;;;;17.80;56.90;;;;;;5065767;28;1967;-68
2022/12/20 12:33:05;;;;;;;;;;;17.80;56.90;;;;;;5060106;28;855;-67
2022/12/20 12:35:50;;;;;;;;;;;17.80;56.90;;;;;;5061534;28;1264;-68
2022/12/20 12:38:26;;;;;;;;;;;17.80;56.90;;;;;;5065182;28;945;-68
2022/12/20 12:41:10;;;;;;;;;;;17.80;56.80;;;;;;5064674;28;1390;-67
2022/12/20 12:43:39;;;;;;;;;;;17.80;56.80;;;;;;5063655;28;1700;-67
2022/12/20 12:46:08;;;;;;;;;;;17.80;56.90;;;;;;5061977;28;1034;-68
2022/12/20 12:48:46;;;;;;;;;;;17.80;56.80;;;;;;5061617;28;823;-68
2022/12/20 12:51:12;;;;;;;;;;;17.80;56.80;;;;;;5058005;28;1969;-69
2022/12/20 12:54:01;;;;;;;;;;;17.80;56.80;;;;;;5061111;28;859;-69
2022/12/20 12:56:27;;;;;;;;;;;17.80;56.90;;;;;;5054637;28;1191;-69
2022/12/20 12:59:08;;;;;;;;;;;17.80;56.90;;;;;;5062122;28;876;-70
2022/12/20 13:01:53;;;;;;;;;;;17.80;56.90;;;;;;5059068;28;1381;-69
2022/12/20 13:04:21;;;;;;;;;;;17.80;56.90;;;;;;5060669;28;1131;-69
2022/12/20 13:06:46;;;;;;;;;;;17.80;56.80;;;;;;5060712;28;876;-69
2022/12/20 13:09:38;;;;;;;;;;;17.80;56.90;;;;;;5063992;28;915;-68
2022/12/20 13:12:23;;;;;;;;;;;17.80;56.90;;;;;;5057855;28;1977;-68
2022/12/20 13:14:49;;;;;;;;;;;17.80;56.80;;;;;;5056566;28;2118;-69
2022/12/20 13:17:17;;;;;;;;;;;17.80;56.80;;;;;;5057961;28;1437;-68
2022/12/20 13:19:56;;;;;;;;;;;17.80;56.80;;;;;;5058768;28;1223;-69
2022/12/20 13:22:22;;;;;;;;;;;17.80;56.80;;;;;;5061007;28;1277;-68
2022/12/20 13:24:54;;;;;;;;;;;17.80;56.80;;;;;;5057080;28;828;-68
2022/12/20 13:27:19;;;;;;;;;;;17.80;56.80;;;;;;5054378;28;2183;-69
2022/12/20 13:29:51;;;;;;;;;;;17.80;56.80;;;;;;5058431;28;1023;-68
2022/12/20 13:32:35;;;;;;;;;;;17.80;56.80;;;;;;5063202;28;1977;-69
2022/12/20 13:35:00;;;;;;;;;;;17.80;56.90;;;;;;5062951;28;831;-69
2022/12/20 13:37:27;;;;;;;;;;;17.80;56.90;;;;;;5060833;28;915;-68
2022/12/20 13:39:53;;;;;;;;;;;17.80;56.90;;;;;;5060268;28;905;-68
2022/12/20 13:42:26;;;;;;;;;;;17.80;57.00;;;;;;5059804;28;1333;-69
2022/12/20 13:44:52;;;;;;;;;;;17.80;57.00;;;;;;5059805;28;970;-68
2022/12/20 13:47:32;;;;;;;;;;;17.80;57.00;;;;;;5058287;28;1622;-69
2022/12/20 13:49:58;;;;;;;;;;;17.70;57.00;;;;;;5060266;28;860;-69
2022/12/20 13:52:31;;;;;;;;;;;17.80;57.10;;;;;;5057998;28;1897;-69
2022/12/20 13:54:57;;;;;;;;;;;17.70;57.10;;;;;;5059272;28;843;-68
2022/12/20 13:57:25;;;;;;;;;;;17.70;57.00;;;;;;5062977;28;986;-68
2022/12/20 13:59:51;;;;;;;;;;;17.70;57.00;;;;;;5060465;28;947;-69
2022/12/20 14:02:21;;;;;;;;;;;17.70;57.10;;;;;;5060467;28;1268;-69
2022/12/20 14:04:50;;;;;;;;;;;17.70;57.10;;;;;;5056285;28;1033;-68
2022/12/20 14:07:15;;;;;;;;;;;17.70;57.10;;;;;;5058184;28;1045;-69
2022/12/20 14:09:42;;;;;;;;;;;17.70;57.10;;;;;;5066643;28;899;-69
2022/12/20 14:12:11;;;;;;;;;;;17.70;57.10;;;;;;5059804;28;1977;-69
2022/12/20 14:14:46;;;;;;;;;;;17.70;57.40;;;;;;5058312;28;866;-69
2022/12/20 14:17:16;;;;;;;;;;;17.70;57.10;;;;;;5042939;28;1693;-69
2022/12/20 14:19:41;;;;;;;;;;;17.70;57.10;;;;;;5060445;28;864;-68
2022/12/20 14:22:08;;;;;;;;;;;17.70;57.10;;;;;;5059336;28;1261;-68
2022/12/20 14:24:34;;;;;;;;;;;17.70;57.10;;;;;;5059855;28;887;-68
2022/12/20 14:26:59;;;;;;;;;;;17.70;57.10;;;;;;5066585;28;856;-68
2022/12/20 14:29:28;;;;;;;;;;;17.70;57.10;;;;;;5061374;28;1127;-67
2022/12/20 14:31:54;;;;;;;;;;;17.70;57.10;;;;;;5064350;28;1890;-68
2022/12/20 14:34:26;;;;;;;;;;;17.70;57.20;;;;;;5065028;28;904;-67
2022/12/20 14:36:52;;;;;;;;;;;17.70;57.10;;;;;;5048739;28;1370;-68
2022/12/20 14:39:25;;;;;;;;;;;17.70;57.20;;;;;;5064293;28;1187;-68
2022/12/20 14:42:00;;;;;;;;;;;17.70;57.10;;;;;;5062471;28;1266;-68
2022/12/20 14:44:27;;;;;;;;;;;17.70;57.20;;;;;;5063169;28;855;-68
2022/12/20 14:46:56;;;;;;;;;;;17.70;57.20;;;;;;5060414;28;811;-68